Wetterdaten: Woche 13.04.09 - 19.04.09 (KW16)
Datum Zeit Temperatur Luftfeuchte Luftdruck Niederschlag Windrichtung Wind
13.04.2009 00:00 9,6 C 66 % 1006,7 hPa 0,0 l/m N-NW 2,4 km/h (1 Bft)
13.04.2009 01:00 9,4 C 65 % 1006,6 hPa 0,0 l/m N-NW 5,5 km/h (1 Bft)
13.04.2009 02:00 7,4 C 76 % 1006,5 hPa 0,0 l/m SW 2,0 km/h (1 Bft)
13.04.2009 03:00 6,4 C 81 % 1006,5 hPa 0,0 l/m NW 1,1 km/h (0 Bft)
13.04.2009 04:00 5,6 C 83 % 1006,5 hPa 0,0 l/m N 0,7 km/h (0 Bft)
13.04.2009 05:00 5,2 C 85 % 1006,3 hPa 0,0 l/m N 2,0 km/h (1 Bft)
13.04.2009 06:00 5,9 C 83 % 1006,5 hPa 0,0 l/m N 1,6 km/h (1 Bft)
13.04.2009 07:00 6,1 C 83 % 1006,6 hPa 0,0 l/m N-NO 2,5 km/h (1 Bft)
13.04.2009 08:00 7,8 C 80 % 1006,8 hPa 0,0 l/m S-SW 3,7 km/h (1 Bft)
13.04.2009 09:00 11,5 C 67 % 1006,7 hPa 0,0 l/m S 8,0 km/h (2 Bft)
13.04.2009 10:00 14,3 C 57 % 1006,5 hPa 0,0 l/m S 9,0 km/h (2 Bft)
13.04.2009 11:00 16,5 C 49 % 1006,4 hPa 0,0 l/m SO 7,2 km/h (2 Bft)
13.04.2009 12:00 18,2 C 46 % 1006,0 hPa 0,0 l/m SO 7,2 km/h (2 Bft)
13.04.2009 13:00 20,5 C 38 % 1005,5 hPa 0,0 l/m SO 12,7 km/h (3 Bft)
13.04.2009 14:00 21,5 C 31 % 1005,2 hPa 0,0 l/m O-SO 14,5 km/h (3 Bft)
13.04.2009 15:00 21,6 C 29 % 1004,9 hPa 0,0 l/m O-NO 12,5 km/h (3 Bft)
13.04.2009 16:00 21,5 C 30 % 1004,6 hPa 0,0 l/m N-NO 11,6 km/h (2 Bft)
13.04.2009 17:00 21,0 C 31 % 1004,3 hPa 0,0 l/m NO 12,8 km/h (3 Bft)
13.04.2009 18:00 20,3 C 33 % 1004,3 hPa 0,0 l/m O-NO 11,8 km/h (2 Bft)
13.04.2009 19:00 18,9 C 37 % 1004,5 hPa 0,0 l/m O 7,8 km/h (2 Bft)
13.04.2009 20:00 15,8 C 49 % 1004,9 hPa 0,0 l/m N 1,6 km/h (1 Bft)
13.04.2009 21:00 13,0 C 60 % 1005,2 hPa 0,0 l/m N 1,5 km/h (1 Bft)
13.04.2009 22:00 11,6 C 63 % 1005,3 hPa 0,0 l/m O-NO 1,6 km/h (1 Bft)
13.04.2009 23:00 10,5 C 66 % 1005,5 hPa 0,0 l/m N 1,7 km/h (1 Bft)
14.04.2009 00:00 9,7 C 69 % 1005,6 hPa 0,0 l/m N-NW 1,3 km/h (1 Bft)
14.04.2009 01:00 9,3 C 71 % 1005,8 hPa 0,0 l/m N-NW 1,3 km/h (1 Bft)
14.04.2009 02:00 7,8 C 78 % 1005,9 hPa 0,0 l/m N 0,7 km/h (0 Bft)
14.04.2009 03:00 6,5 C 84 % 1006,0 hPa 0,0 l/m N 0,9 km/h (0 Bft)
14.04.2009 04:00 5,8 C 86 % 1006,1 hPa 0,0 l/m N 0,1 km/h (0 Bft)
14.04.2009 05:00 5,2 C 88 % 1006,1 hPa 0,0 l/m N 0,1 km/h (0 Bft)
14.04.2009 06:00 4,7 C 89 % 1006,3 hPa 0,0 l/m N 0,0 km/h (0 Bft)
14.04.2009 07:00 4,7 C 89 % 1006,7 hPa 0,0 l/m N 0,1 km/h (0 Bft)
14.04.2009 08:00 7,3 C 83 % 1006,9 hPa 0,0 l/m SO 2,5 km/h (1 Bft)
14.04.2009 09:00 10,6 C 73 % 1006,8 hPa 0,0 l/m S-SW 7,8 km/h (2 Bft)
14.04.2009 10:00 13,8 C 61 % 1007,1 hPa 0,0 l/m S-SW 15,0 km/h (3 Bft)
14.04.2009 11:00 15,8 C 54 % 1007,1 hPa 0,0 l/m S-SW 10,6 km/h (2 Bft)
14.04.2009 12:00 18,4 C 46 % 1006,8 hPa 0,0 l/m SW 11,0 km/h (2 Bft)
14.04.2009 13:00 20,4 C 36 % 1006,4 hPa 0,0 l/m O-SO 14,2 km/h (3 Bft)
14.04.2009 14:00 21,4 C 31 % 1006,2 hPa 0,0 l/m O-SO 15,0 km/h (3 Bft)
14.04.2009 15:00 21,6 C 30 % 1006,0 hPa 0,0 l/m O-SO 15,3 km/h (3 Bft)
14.04.2009 16:00 21,7 C 28 % 1005,8 hPa 0,0 l/m O-NO 10,1 km/h (2 Bft)
14.04.2009 17:00 21,2 C 29 % 1005,7 hPa 0,0 l/m O-SO 13,7 km/h (3 Bft)
14.04.2009 18:00 20,0 C 32 % 1005,9 hPa 0,0 l/m O-SO 10,9 km/h (2 Bft)
14.04.2009 19:00 18,6 C 38 % 1005,9 hPa 0,0 l/m O-SO 3,5 km/h (1 Bft)
14.04.2009 20:00 14,8 C 51 % 1006,2 hPa 0,0 l/m N 1,3 km/h (1 Bft)
14.04.2009 21:00 12,7 C 57 % 1006,7 hPa 0,0 l/m N 0,5 km/h (0 Bft)
14.04.2009 22:00 11,4 C 59 % 1007,1 hPa 0,0 l/m N-NO 2,3 km/h (1 Bft)
14.04.2009 23:00 10,6 C 64 % 1007,2 hPa 0,0 l/m N 2,5 km/h (1 Bft)
15.04.2009 00:00 9,7 C 66 % 1007,2 hPa 0,0 l/m N 2,4 km/h (1 Bft)
15.04.2009 01:00 9,1 C 66 % 1007,2 hPa 0,0 l/m N-NO 3,5 km/h (1 Bft)
15.04.2009 02:00 8,4 C 69 % 1007,3 hPa 0,0 l/m N 1,3 km/h (1 Bft)
15.04.2009 03:00 7,2 C 75 % 1007,2 hPa 0,0 l/m N 0,7 km/h (0 Bft)
15.04.2009 04:00 7,0 C 76 % 1007,3 hPa 0,0 l/m N-NW 4,1 km/h (1 Bft)
15.04.2009 05:00 6,4 C 78 % 1007,4 hPa 0,0 l/m N-NW 2,7 km/h (1 Bft)
15.04.2009 06:00 5,6 C 81 % 1007,6 hPa 0,0 l/m N 0,3 km/h (0 Bft)
15.04.2009 07:00 6,1 C 81 % 1007,7 hPa 0,0 l/m N 0,1 km/h (0 Bft)
15.04.2009 08:00 9,5 C 68 % 1008,0 hPa 0,0 l/m N-NO 3,7 km/h (1 Bft)
15.04.2009 09:00 12,8 C 56 % 1008,1 hPa 0,0 l/m O-NO 4,4 km/h (1 Bft)
15.04.2009 10:00 15,7 C 46 % 1008,0 hPa 0,0 l/m SO 6,9 km/h (2 Bft)
15.04.2009 11:00 18,0 C 41 % 1007,6 hPa 0,0 l/m SW 7,9 km/h (2 Bft)
15.04.2009 12:00 19,9 C 35 % 1007,1 hPa 0,0 l/m SW 11,0 km/h (2 Bft)
15.04.2009 13:00 21,5 C 27 % 1006,7 hPa 0,0 l/m SW 20,0 km/h (4 Bft)
15.04.2009 14:00 22,3 C 25 % 1006,3 hPa 0,0 l/m S-SW 18,4 km/h (3 Bft)
15.04.2009 15:00 22,8 C 24 % 1006,0 hPa 0,0 l/m SW 13,8 km/h (3 Bft)
15.04.2009 16:00 23,5 C 24 % 1005,5 hPa 0,0 l/m S-SW 18,8 km/h (3 Bft)
15.04.2009 17:00 22,9 C 23 % 1005,1 hPa 0,0 l/m SO 18,2 km/h (3 Bft)
15.04.2009 18:00 21,8 C 27 % 1004,9 hPa 0,0 l/m O-SO 12,9 km/h (3 Bft)
15.04.2009 19:00 19,9 C 34 % 1005,2 hPa 0,0 l/m O-SO 7,9 km/h (2 Bft)
15.04.2009 20:00 18,0 C 34 % 1005,7 hPa 0,0 l/m SO 4,5 km/h (1 Bft)
15.04.2009 21:00 14,8 C 43 % 1005,9 hPa 0,0 l/m SW 4,0 km/h (1 Bft)
15.04.2009 22:00 16,4 C 30 % 1005,9 hPa 0,0 l/m S-SW 22,3 km/h (4 Bft)
15.04.2009 23:00 15,3 C 32 % 1005,9 hPa 0,0 l/m SW 13,8 km/h (3 Bft)
16.04.2009 00:00 13,4 C 38 % 1006,2 hPa 0,0 l/m S 2,1 km/h (1 Bft)
16.04.2009 01:00 10,9 C 49 % 1006,3 hPa 0,0 l/m N 0,1 km/h (0 Bft)
16.04.2009 02:00 9,6 C 56 % 1006,1 hPa 0,0 l/m N 0,5 km/h (0 Bft)
16.04.2009 03:00 8,9 C 59 % 1005,7 hPa 0,0 l/m N 0,9 km/h (0 Bft)
16.04.2009 04:00 8,6 C 60 % 1005,5 hPa 0,0 l/m W 2,5 km/h (1 Bft)
16.04.2009 05:00 8,0 C 63 % 1005,9 hPa 0,0 l/m N 0,4 km/h (0 Bft)
16.04.2009 06:00 7,8 C 65 % 1005,9 hPa 0,0 l/m N-NW 8,3 km/h (2 Bft)
16.04.2009 07:00 8,3 C 64 % 1006,0 hPa 0,0 l/m N 2,8 km/h (1 Bft)
16.04.2009 08:00 10,5 C 61 % 1005,4 hPa 0,0 l/m N-NO 7,2 km/h (2 Bft)
16.04.2009 09:00 12,3 C 57 % 1005,0 hPa 0,0 l/m O-NO 7,2 km/h (2 Bft)
16.04.2009 10:00 14,2 C 55 % 1004,5 hPa 0,0 l/m O-NO 13,8 km/h (3 Bft)
16.04.2009 11:00 15,1 C 52 % 1003,9 hPa 0,0 l/m O-NO 11,4 km/h (2 Bft)
16.04.2009 12:00 16,3 C 49 % 1003,0 hPa 0,0 l/m O-NO 11,7 km/h (2 Bft)
16.04.2009 13:00 16,4 C 50 % 1002,3 hPa 0,0 l/m O-NO 9,3 km/h (2 Bft)
16.04.2009 14:00 17,3 C 49 % 1002,0 hPa 0,0 l/m N-NO 11,6 km/h (2 Bft)
16.04.2009 15:00 16,6 C 51 % 1002,2 hPa 0,0 l/m N 8,4 km/h (2 Bft)
16.04.2009 16:00 16,5 C 53 % 1002,5 hPa 0,0 l/m W-NW 8,0 km/h (2 Bft)
16.04.2009 17:00 14,7 C 56 % 1003,0 hPa 0,0 l/m W-SW 29,4 km/h (5 Bft)
16.04.2009 18:00 10,5 C 68 % 1004,7 hPa 0,0 l/m W-SW 30,2 km/h (5 Bft)
16.04.2009 19:00 8,2 C 85 % 1006,2 hPa 1,6 l/m W-SW 19,4 km/h (3 Bft)
16.04.2009 20:00 7,6 C 88 % 1006,3 hPa 0,0 l/m SW 15,0 km/h (3 Bft)
16.04.2009 21:00 7,3 C 90 % 1006,7 hPa 0,0 l/m W-SW 17,2 km/h (3 Bft)
16.04.2009 22:00 7,3 C 90 % 1006,6 hPa 0,0 l/m SW 13,6 km/h (3 Bft)
16.04.2009 23:00 7,0 C 91 % 1006,6 hPa 0,0 l/m W-SW 9,5 km/h (2 Bft)
17.04.2009 00:00 6,9 C 90 % 1006,4 hPa 0,0 l/m SW 6,6 km/h (2 Bft)
17.04.2009 01:00 6,7 C 93 % 1006,3 hPa 0,0 l/m SW 5,9 km/h (2 Bft)
17.04.2009 02:00 6,8 C 94 % 1006,0 hPa 0,0 l/m SW 11,2 km/h (2 Bft)
17.04.2009 03:00 6,9 C 91 % 1006,0 hPa 0,0 l/m W-SW 16,1 km/h (3 Bft)
17.04.2009 04:00 7,2 C 89 % 1006,1 hPa 0,0 l/m W-SW 16,9 km/h (3 Bft)
17.04.2009 05:00 7,1 C 90 % 1006,2 hPa 0,2 l/m SW 20,4 km/h (4 Bft)
17.04.2009 06:00 7,0 C 90 % 1006,3 hPa 0,0 l/m SW 17,7 km/h (3 Bft)
17.04.2009 07:00 7,1 C 89 % 1006,6 hPa 0,2 l/m W-SW 19,2 km/h (3 Bft)
17.04.2009 08:00 7,3 C 89 % 1006,9 hPa 0,4 l/m W-SW 23,2 km/h (4 Bft)
17.04.2009 09:00 7,9 C 87 % 1007,0 hPa 0,0 l/m W-SW 27,2 km/h (4 Bft)
17.04.2009 10:00 8,6 C 82 % 1007,6 hPa 0,0 l/m SW 26,6 km/h (4 Bft)
17.04.2009 11:00 9,0 C 79 % 1007,9 hPa 0,0 l/m W-SW 28,7 km/h (4 Bft)
17.04.2009 12:00 9,9 C 74 % 1007,8 hPa 0,0 l/m SW 30,2 km/h (5 Bft)
17.04.2009 13:00 11,6 C 65 % 1007,6 hPa 0,0 l/m W 32,7 km/h (5 Bft)
17.04.2009 14:00 10,9 C 70 % 1007,8 hPa 0,8 l/m SW 26,1 km/h (4 Bft)
17.04.2009 15:00 10,5 C 78 % 1008,0 hPa 0,2 l/m W-SW 19,2 km/h (3 Bft)
17.04.2009 16:00 10,0 C 83 % 1008,0 hPa 1,4 l/m SW 20,1 km/h (4 Bft)
17.04.2009 17:00 10,8 C 74 % 1007,8 hPa 0,0 l/m W 18,9 km/h (3 Bft)
17.04.2009 18:00 9,5 C 78 % 1008,3 hPa 0,2 l/m W 15,7 km/h (3 Bft)
17.04.2009 19:00 9,3 C 74 % 1008,5 hPa 0,0 l/m W 16,9 km/h (3 Bft)
17.04.2009 20:00 8,9 C 72 % 1009,0 hPa 0,2 l/m W 15,2 km/h (3 Bft)
17.04.2009 21:00 8,5 C 76 % 1009,5 hPa 0,0 l/m W 11,0 km/h (2 Bft)
17.04.2009 22:00 8,1 C 77 % 1009,6 hPa 0,0 l/m W-SW 11,1 km/h (2 Bft)
17.04.2009 23:00 7,2 C 80 % 1009,6 hPa 0,0 l/m W-SW 8,6 km/h (2 Bft)
18.04.2009 00:00 6,8 C 81 % 1009,7 hPa 0,0 l/m W-SW 10,1 km/h (2 Bft)
18.04.2009 01:00 6,4 C 83 % 1009,9 hPa 0,0 l/m SW 10,9 km/h (2 Bft)
18.04.2009 02:00 6,9 C 81 % 1010,1 hPa 0,0 l/m W-SW 18,4 km/h (3 Bft)
18.04.2009 03:00 6,6 C 84 % 1009,9 hPa 0,0 l/m W-SW 14,4 km/h (3 Bft)
18.04.2009 04:00 6,9 C 83 % 1010,0 hPa 0,0 l/m W-SW 16,0 km/h (3 Bft)
18.04.2009 05:00 7,0 C 84 % 1010,1 hPa 0,0 l/m W-SW 14,2 km/h (3 Bft)
18.04.2009 06:00 6,6 C 86 % 1010,3 hPa 0,0 l/m W-SW 6,4 km/h (2 Bft)
18.04.2009 07:00 6,8 C 86 % 1010,7 hPa 0,0 l/m W-SW 8,6 km/h (2 Bft)
18.04.2009 08:00 7,5 C 85 % 1010,9 hPa 0,0 l/m W-SW 13,4 km/h (3 Bft)
18.04.2009 09:00 8,1 C 84 % 1011,3 hPa 0,0 l/m SW 12,4 km/h (3 Bft)
18.04.2009 10:00 9,2 C 76 % 1011,6 hPa 0,0 l/m W 20,1 km/h (4 Bft)
18.04.2009 11:00 9,9 C 72 % 1012,0 hPa 0,0 l/m W 22,5 km/h (4 Bft)
18.04.2009 12:00 11,3 C 64 % 1011,9 hPa 0,0 l/m W-SW 20,9 km/h (4 Bft)
18.04.2009 13:00 11,4 C 60 % 1011,6 hPa 0,0 l/m W-SW 27,4 km/h (4 Bft)
18.04.2009 14:00 11,1 C 67 % 1011,8 hPa 0,0 l/m SW 17,0 km/h (3 Bft)
18.04.2009 15:00 10,2 C 78 % 1011,9 hPa 1,0 l/m W-NW 11,7 km/h (2 Bft)
18.04.2009 16:00 11,5 C 72 % 1011,6 hPa 0,0 l/m N 9,1 km/h (2 Bft)
18.04.2009 17:00 11,4 C 67 % 1012,2 hPa 0,0 l/m W-NW 15,7 km/h (3 Bft)
18.04.2009 18:00 11,7 C 65 % 1012,5 hPa 0,0 l/m N 10,1 km/h (2 Bft)
18.04.2009 19:00 10,9 C 68 % 1012,9 hPa 0,0 l/m NO 5,3 km/h (1 Bft)
18.04.2009 20:00 8,9 C 77 % 1013,4 hPa 0,0 l/m N-NO 3,3 km/h (1 Bft)
18.04.2009 21:00 6,9 C 85 % 1014,5 hPa 0,0 l/m N 1,1 km/h (0 Bft)
18.04.2009 22:00 5,8 C 90 % 1015,1 hPa 0,0 l/m N-NO 3,1 km/h (1 Bft)
18.04.2009 23:00 5,3 C 91 % 1015,5 hPa 0,0 l/m N-NO 3,9 km/h (1 Bft)
19.04.2009 00:00 5,0 C 92 % 1015,6 hPa 0,0 l/m N 4,4 km/h (1 Bft)
19.04.2009 01:00 4,8 C 92 % 1015,6 hPa 0,0 l/m N-NW 5,3 km/h (1 Bft)
19.04.2009 02:00 4,3 C 94 % 1015,5 hPa 0,0 l/m N-NW 5,2 km/h (1 Bft)
19.04.2009 03:00 4,0 C 95 % 1015,6 hPa 0,0 l/m N 9,7 km/h (2 Bft)
19.04.2009 04:00 4,5 C 95 % 1015,7 hPa 0,0 l/m N 10,2 km/h (2 Bft)
19.04.2009 05:00 4,6 C 95 % 1015,9 hPa 0,0 l/m N-NO 8,6 km/h (2 Bft)
19.04.2009 06:00 4,2 C 95 % 1016,1 hPa 0,0 l/m N 9,4 km/h (2 Bft)
19.04.2009 07:00 4,6 C 96 % 1016,4 hPa 0,0 l/m N-NO 8,4 km/h (2 Bft)
19.04.2009 08:00 6,3 C 91 % 1016,8 hPa 0,0 l/m NO 11,1 km/h (2 Bft)
19.04.2009 09:00 8,6 C 84 % 1016,9 hPa 0,0 l/m O-NO 13,7 km/h (3 Bft)
19.04.2009 10:00 11,3 C 73 % 1016,8 hPa 0,0 l/m NO 16,2 km/h (3 Bft)
19.04.2009 11:00 13,6 C 64 % 1016,9 hPa 0,0 l/m O-NO 19,6 km/h (3 Bft)
19.04.2009 12:00 15,2 C 56 % 1016,7 hPa 0,0 l/m O-NO 21,3 km/h (4 Bft)
19.04.2009 13:00 16,7 C 50 % 1016,5 hPa 0,0 l/m NO 20,6 km/h (4 Bft)
19.04.2009 14:00 17,7 C 43 % 1016,3 hPa 0,0 l/m O-SO 23,3 km/h (4 Bft)
19.04.2009 15:00 18,4 C 41 % 1016,2 hPa 0,0 l/m O-NO 24,1 km/h (4 Bft)
19.04.2009 16:00 18,3 C 42 % 1015,8 hPa 0,0 l/m NO 22,5 km/h (4 Bft)
19.04.2009 17:00 18,3 C 40 % 1015,9 hPa 0,0 l/m NO 23,4 km/h (4 Bft)
19.04.2009 18:00 17,8 C 41 % 1016,0 hPa 0,0 l/m O-NO 21,2 km/h (4 Bft)
19.04.2009 19:00 16,6 C 46 % 1016,2 hPa 0,0 l/m O-NO 13,6 km/h (3 Bft)
19.04.2009 20:00 14,2 C 54 % 1016,5 hPa 0,0 l/m N 9,3 km/h (2 Bft)
19.04.2009 21:00 13,9 C 58 % 1016,8 hPa 0,0 l/m NO 18,1 km/h (3 Bft)
19.04.2009 22:00 13,3 C 63 % 1016,9 hPa 0,0 l/m O-NO 17,3 km/h (3 Bft)
19.04.2009 23:00 12,1 C 69 % 1016,9 hPa 0,0 l/m N-NO 15,4 km/h (3 Bft)
Min-Datum _ 19.04.09 15.04.09 16.04.09 - - 13.04.09
_ Min-Zeit 03:10 17:10 14:35 - - 00:30
Minimum _ 3,9 C 21 % 1001,8 hPa - - 0,0 km/h (0 Bft)
Max-Datum _ 15.04.09 19.04.09 19.04.09 16.04.09 - 16.04.09
_ Max-Zeit 16:15 06:30 11:30 19:25 - 17:50
Maximum _ 23,9 C 96 % 1017,1 hPa 1,6 l/m - 45,1 km/h
W-SW (6 Bft)
Durchschnitt _ 11,5 C 65 % 1008,5 hPa #6,2 l/m W-SW 10,8 km/h (2 Bft)